Главная страница
METAR-TAF:

METAR-TAF

Аэропорты :

Зенджан, Иран

широта: 36-41N, долгота: 048-29E, высота над уровнем моря: 1663 м

Текущие метеонаблюдения

Эта сводка был подготовлена 10 минут назад, в 03:00 UTC
Ветер 12 Узел от восточно-юго-восточный
Температура 3°C
Влажность 87%
Давление 1010 hPa
Видимость 10 км и более
небольшая облачность на высоте 2000 фута
Отдельные облака на высоте 3000 фута, Кучево-дождевые.

METAR: OITZ 100300Z 12012KT 9999 FEW020 SCT030CB 03/01 Q1010

Время: 07:40 (03:10 UTC)


TAF: отсутствует

Метеонаблюдения и прогнозы для более 4000 аэропортов (сводки METAR и TAF).

Имеющиеся станции представлены на карте желтыми и красными точками.

Чтобы увидеть название станции, наведите на нее мышь.

Затем щелкните, чтобы увидеть метеонаблюдения и метеопрогнозы.

Управление картой: чтобы увеличить масштаб, щелкните зеленые кнопки с черным крестиком; чтобы уменьшить масштаб, щелкните зеленую кнопку с тире; для просмотра соседних карт щелкайте зеленые стрелки.


METAR-TAF: